sensor_id;sensor_type;location;lat;lon;timestamp;temperature;humidity
81895;DHT22;71358;45.642;13.758;2024-01-07T00:02:03;24.00;51.90
81895;DHT22;71358;45.642;13.758;2024-01-07T00:04:48;24.00;52.20
81895;DHT22;71358;45.642;13.758;2024-01-07T00:07:33;24.00;52.20
81895;DHT22;71358;45.642;13.758;2024-01-07T00:10:17;24.00;52.20
81895;DHT22;71358;45.642;13.758;2024-01-07T00:13:02;23.90;52.20
81895;DHT22;71358;45.642;13.758;2024-01-07T00:15:47;24.00;52.40
81895;DHT22;71358;45.642;13.758;2024-01-07T00:18:31;24.00;52.30
81895;DHT22;71358;45.642;13.758;2024-01-07T00:21:16;23.90;52.40
81895;DHT22;71358;45.642;13.758;2024-01-07T00:24:00;23.90;52.50
81895;DHT22;71358;45.642;13.758;2024-01-07T00:26:45;24.00;52.50
81895;DHT22;71358;45.642;13.758;2024-01-07T00:29:29;24.00;52.50
81895;DHT22;71358;45.642;13.758;2024-01-07T00:32:14;23.90;52.40
81895;DHT22;71358;45.642;13.758;2024-01-07T00:34:59;23.90;52.40
81895;DHT22;71358;45.642;13.758;2024-01-07T00:37:43;23.90;52.40
81895;DHT22;71358;45.642;13.758;2024-01-07T00:40:28;23.90;52.40
81895;DHT22;71358;45.642;13.758;2024-01-07T00:43:13;23.90;52.50
81895;DHT22;71358;45.642;13.758;2024-01-07T00:45:57;23.90;52.40
81895;DHT22;71358;45.642;13.758;2024-01-07T00:48:42;23.90;52.40
81895;DHT22;71358;45.642;13.758;2024-01-07T00:51:26;23.90;52.40
81895;DHT22;71358;45.642;13.758;2024-01-07T00:54:11;23.90;52.50
81895;DHT22;71358;45.642;13.758;2024-01-07T00:56:55;23.90;52.50
81895;DHT22;71358;45.642;13.758;2024-01-07T00:59:40;23.80;52.60
81895;DHT22;71358;45.642;13.758;2024-01-07T01:02:24;23.80;52.60
81895;DHT22;71358;45.642;13.758;2024-01-07T01:05:09;23.80;52.60
81895;DHT22;71358;45.642;13.758;2024-01-07T01:07:53;23.90;52.70
81895;DHT22;71358;45.642;13.758;2024-01-07T01:10:38;23.80;52.60
81895;DHT22;71358;45.642;13.758;2024-01-07T01:13:22;23.80;52.70
81895;DHT22;71358;45.642;13.758;2024-01-07T01:16:07;23.80;52.60
81895;DHT22;71358;45.642;13.758;2024-01-07T01:18:52;23.80;52.60
81895;DHT22;71358;45.642;13.758;2024-01-07T01:21:36;23.80;52.60
81895;DHT22;71358;45.642;13.758;2024-01-07T01:24:21;23.80;52.60
81895;DHT22;71358;45.642;13.758;2024-01-07T01:27:06;23.80;52.50
81895;DHT22;71358;45.642;13.758;2024-01-07T01:29:51;23.80;52.60
81895;DHT22;71358;45.642;13.758;2024-01-07T01:32:36;23.80;52.60
81895;DHT22;71358;45.642;13.758;2024-01-07T01:35:20;23.80;52.70
81895;DHT22;71358;45.642;13.758;2024-01-07T01:38:05;23.80;52.70
81895;DHT22;71358;45.642;13.758;2024-01-07T01:40:53;23.70;52.60
81895;DHT22;71358;45.642;13.758;2024-01-07T01:43:38;23.70;52.80
81895;DHT22;71358;45.642;13.758;2024-01-07T01:46:23;23.80;52.90
81895;DHT22;71358;45.642;13.758;2024-01-07T01:49:08;23.70;52.70
81895;DHT22;71358;45.642;13.758;2024-01-07T01:51:53;23.70;52.70
81895;DHT22;71358;45.642;13.758;2024-01-07T01:54:37;23.70;52.60
81895;DHT22;71358;45.642;13.758;2024-01-07T01:57:22;23.70;52.50
81895;DHT22;71358;45.642;13.758;2024-01-07T02:00:09;23.70;52.60
81895;DHT22;71358;45.642;13.758;2024-01-07T02:02:54;23.70;52.60
81895;DHT22;71358;45.642;13.758;2024-01-07T02:05:39;23.70;52.60
81895;DHT22;71358;45.642;13.758;2024-01-07T02:08:25;23.70;52.60
81895;DHT22;71358;45.642;13.758;2024-01-07T02:11:20;23.70;52.60
81895;DHT22;71358;45.642;13.758;2024-01-07T02:14:04;23.70;52.60
81895;DHT22;71358;45.642;13.758;2024-01-07T02:16:49;23.70;52.60
81895;DHT22;71358;45.642;13.758;2024-01-07T02:19:33;23.70;52.50
81895;DHT22;71358;45.642;13.758;2024-01-07T02:22:18;23.60;52.40
81895;DHT22;71358;45.642;13.758;2024-01-07T02:25:03;23.70;52.30
81895;DHT22;71358;45.642;13.758;2024-01-07T02:27:48;23.60;52.30
81895;DHT22;71358;45.642;13.758;2024-01-07T02:30:32;23.60;52.30
81895;DHT22;71358;45.642;13.758;2024-01-07T02:33:17;23.60;52.30
81895;DHT22;71358;45.642;13.758;2024-01-07T02:36:02;23.60;52.40
81895;DHT22;71358;45.642;13.758;2024-01-07T02:38:46;23.60;52.40
81895;DHT22;71358;45.642;13.758;2024-01-07T02:41:31;23.60;52.40
81895;DHT22;71358;45.642;13.758;2024-01-07T02:44:15;23.60;52.30
81895;DHT22;71358;45.642;13.758;2024-01-07T02:47:00;23.60;52.30
81895;DHT22;71358;45.642;13.758;2024-01-07T02:49:44;23.60;52.30
81895;DHT22;71358;45.642;13.758;2024-01-07T02:52:29;23.50;52.20
81895;DHT22;71358;45.642;13.758;2024-01-07T02:55:14;23.50;52.20
81895;DHT22;71358;45.642;13.758;2024-01-07T02:57:58;23.50;52.30
81895;DHT22;71358;45.642;13.758;2024-01-07T03:00:43;23.50;52.20
81895;DHT22;71358;45.642;13.758;2024-01-07T03:03:28;23.60;52.20
81895;DHT22;71358;45.642;13.758;2024-01-07T03:06:12;23.50;52.20
81895;DHT22;71358;45.642;13.758;2024-01-07T03:08:57;23.50;52.20
81895;DHT22;71358;45.642;13.758;2024-01-07T03:11:41;23.50;52.20
81895;DHT22;71358;45.642;13.758;2024-01-07T03:14:26;23.50;52.30
81895;DHT22;71358;45.642;13.758;2024-01-07T03:17:11;23.50;52.30
81895;DHT22;71358;45.642;13.758;2024-01-07T03:19:55;23.50;52.30
81895;DHT22;71358;45.642;13.758;2024-01-07T03:22:40;23.50;52.20
81895;DHT22;71358;45.642;13.758;2024-01-07T03:25:24;23.50;52.20
81895;DHT22;71358;45.642;13.758;2024-01-07T03:28:09;23.50;52.10
81895;DHT22;71358;45.642;13.758;2024-01-07T03:30:53;23.50;52.10
81895;DHT22;71358;45.642;13.758;2024-01-07T03:33:39;23.50;52.10
81895;DHT22;71358;45.642;13.758;2024-01-07T03:36:24;23.50;52.00
81895;DHT22;71358;45.642;13.758;2024-01-07T03:39:08;23.50;52.00
81895;DHT22;71358;45.642;13.758;2024-01-07T03:41:56;23.50;51.90
81895;DHT22;71358;45.642;13.758;2024-01-07T03:44:40;23.50;51.70
81895;DHT22;71358;45.642;13.758;2024-01-07T03:47:25;23.40;51.80
81895;DHT22;71358;45.642;13.758;2024-01-07T03:50:10;23.50;51.90
81895;DHT22;71358;45.642;13.758;2024-01-07T03:52:54;23.50;51.70
81895;DHT22;71358;45.642;13.758;2024-01-07T03:55:39;23.40;51.60
81895;DHT22;71358;45.642;13.758;2024-01-07T03:58:23;23.40;51.70
81895;DHT22;71358;45.642;13.758;2024-01-07T04:01:08;23.50;51.70
81895;DHT22;71358;45.642;13.758;2024-01-07T04:03:52;23.40;51.60
81895;DHT22;71358;45.642;13.758;2024-01-07T04:06:37;23.40;51.60
81895;DHT22;71358;45.642;13.758;2024-01-07T04:09:22;23.40;51.80
81895;DHT22;71358;45.642;13.758;2024-01-07T04:12:06;23.40;51.80
81895;DHT22;71358;45.642;13.758;2024-01-07T04:14:51;23.40;51.60
81895;DHT22;71358;45.642;13.758;2024-01-07T04:17:35;23.40;51.70
81895;DHT22;71358;45.642;13.758;2024-01-07T04:20:20;23.40;51.60
81895;DHT22;71358;45.642;13.758;2024-01-07T04:23:05;23.40;51.60
81895;DHT22;71358;45.642;13.758;2024-01-07T04:25:49;23.40;51.40
81895;DHT22;71358;45.642;13.758;2024-01-07T04:28:34;23.40;51.30
81895;DHT22;71358;45.642;13.758;2024-01-07T04:31:20;23.40;51.40
81895;DHT22;71358;45.642;13.758;2024-01-07T04:34:05;23.30;51.30
81895;DHT22;71358;45.642;13.758;2024-01-07T04:36:49;23.40;51.50
81895;DHT22;71358;45.642;13.758;2024-01-07T04:39:34;23.40;51.50
81895;DHT22;71358;45.642;13.758;2024-01-07T04:42:18;23.40;51.50
81895;DHT22;71358;45.642;13.758;2024-01-07T04:45:03;23.30;51.50
81895;DHT22;71358;45.642;13.758;2024-01-07T04:47:48;23.30;51.30
81895;DHT22;71358;45.642;13.758;2024-01-07T04:50:32;23.30;51.40
81895;DHT22;71358;45.642;13.758;2024-01-07T04:53:17;23.30;51.40
81895;DHT22;71358;45.642;13.758;2024-01-07T04:56:01;23.30;51.40
81895;DHT22;71358;45.642;13.758;2024-01-07T04:58:46;23.30;51.40
81895;DHT22;71358;45.642;13.758;2024-01-07T05:01:34;23.30;51.50
81895;DHT22;71358;45.642;13.758;2024-01-07T05:04:19;23.30;51.50
81895;DHT22;71358;45.642;13.758;2024-01-07T05:07:04;23.30;51.50
81895;DHT22;71358;45.642;13.758;2024-01-07T05:09:48;23.30;51.60
81895;DHT22;71358;45.642;13.758;2024-01-07T05:12:33;23.20;51.50
81895;DHT22;71358;45.642;13.758;2024-01-07T05:15:17;23.30;51.60
81895;DHT22;71358;45.642;13.758;2024-01-07T05:18:02;23.20;51.50
81895;DHT22;71358;45.642;13.758;2024-01-07T05:20:46;23.20;51.50
81895;DHT22;71358;45.642;13.758;2024-01-07T05:23:31;23.20;51.40
81895;DHT22;71358;45.642;13.758;2024-01-07T05:26:15;23.20;51.30
81895;DHT22;71358;45.642;13.758;2024-01-07T05:29:00;23.20;51.20
81895;DHT22;71358;45.642;13.758;2024-01-07T05:31:45;23.20;51.20
81895;DHT22;71358;45.642;13.758;2024-01-07T05:34:30;23.20;51.20
81895;DHT22;71358;45.642;13.758;2024-01-07T05:37:14;23.20;51.20
81895;DHT22;71358;45.642;13.758;2024-01-07T05:39:58;23.20;51.20
81895;DHT22;71358;45.642;13.758;2024-01-07T05:42:43;23.20;51.20
81895;DHT22;71358;45.642;13.758;2024-01-07T05:45:27;23.20;51.10
81895;DHT22;71358;45.642;13.758;2024-01-07T05:48:12;23.20;51.10
81895;DHT22;71358;45.642;13.758;2024-01-07T05:50:57;23.20;51.10
81895;DHT22;71358;45.642;13.758;2024-01-07T05:53:43;23.20;51.10
81895;DHT22;71358;45.642;13.758;2024-01-07T05:56:27;23.20;51.20
81895;DHT22;71358;45.642;13.758;2024-01-07T05:59:12;23.20;51.10
81895;DHT22;71358;45.642;13.758;2024-01-07T06:02:00;23.20;51.10
81895;DHT22;71358;45.642;13.758;2024-01-07T06:04:45;23.10;51.10
81895;DHT22;71358;45.642;13.758;2024-01-07T06:07:29;23.10;51.10
81895;DHT22;71358;45.642;13.758;2024-01-07T06:10:13;23.10;51.10
81895;DHT22;71358;45.642;13.758;2024-01-07T06:12:58;23.10;51.20
81895;DHT22;71358;45.642;13.758;2024-01-07T06:15:43;23.20;51.20
81895;DHT22;71358;45.642;13.758;2024-01-07T06:18:27;23.10;51.10
81895;DHT22;71358;45.642;13.758;2024-01-07T06:21:12;23.10;51.10
81895;DHT22;71358;45.642;13.758;2024-01-07T06:23:56;23.10;51.10
81895;DHT22;71358;45.642;13.758;2024-01-07T06:26:41;23.10;51.00
81895;DHT22;71358;45.642;13.758;2024-01-07T06:29:25;23.10;51.10
81895;DHT22;71358;45.642;13.758;2024-01-07T06:32:10;23.10;51.10
81895;DHT22;71358;45.642;13.758;2024-01-07T06:34:55;23.10;51.10
81895;DHT22;71358;45.642;13.758;2024-01-07T06:37:39;23.10;51.00
81895;DHT22;71358;45.642;13.758;2024-01-07T06:40:24;23.10;51.00
81895;DHT22;71358;45.642;13.758;2024-01-07T06:43:09;23.10;51.10
81895;DHT22;71358;45.642;13.758;2024-01-07T06:45:54;23.10;51.00
81895;DHT22;71358;45.642;13.758;2024-01-07T06:48:38;23.10;51.00
81895;DHT22;71358;45.642;13.758;2024-01-07T06:51:23;23.10;51.10
81895;DHT22;71358;45.642;13.758;2024-01-07T06:54:07;23.10;51.00
81895;DHT22;71358;45.642;13.758;2024-01-07T06:56:52;23.10;51.00
81895;DHT22;71358;45.642;13.758;2024-01-07T06:59:36;23.10;51.00
81895;DHT22;71358;45.642;13.758;2024-01-07T07:02:21;23.10;51.00
81895;DHT22;71358;45.642;13.758;2024-01-07T07:05:06;23.10;51.00
81895;DHT22;71358;45.642;13.758;2024-01-07T07:07:50;23.10;51.00
81895;DHT22;71358;45.642;13.758;2024-01-07T07:10:35;23.10;50.90
81895;DHT22;71358;45.642;13.758;2024-01-07T07:13:19;23.10;50.90
81895;DHT22;71358;45.642;13.758;2024-01-07T07:16:05;23.00;50.80
81895;DHT22;71358;45.642;13.758;2024-01-07T07:18:49;23.00;50.80
81895;DHT22;71358;45.642;13.758;2024-01-07T07:21:34;23.00;50.70
81895;DHT22;71358;45.642;13.758;2024-01-07T07:24:18;23.00;50.70
81895;DHT22;71358;45.642;13.758;2024-01-07T07:27:03;23.00;50.70
81895;DHT22;71358;45.642;13.758;2024-01-07T07:29:48;23.00;50.60
81895;DHT22;71358;45.642;13.758;2024-01-07T07:32:32;23.00;50.60
81895;DHT22;71358;45.642;13.758;2024-01-07T07:35:17;23.00;50.60
81895;DHT22;71358;45.642;13.758;2024-01-07T07:38:01;23.00;50.60
81895;DHT22;71358;45.642;13.758;2024-01-07T07:40:46;23.00;50.60
81895;DHT22;71358;45.642;13.758;2024-01-07T07:43:36;23.00;50.70
81895;DHT22;71358;45.642;13.758;2024-01-07T07:46:21;23.00;50.70
81895;DHT22;71358;45.642;13.758;2024-01-07T07:49:05;23.00;50.60
81895;DHT22;71358;45.642;13.758;2024-01-07T07:51:50;23.00;50.50
81895;DHT22;71358;45.642;13.758;2024-01-07T07:54:36;23.00;50.50
81895;DHT22;71358;45.642;13.758;2024-01-07T07:57:21;23.00;50.40
81895;DHT22;71358;45.642;13.758;2024-01-07T08:00:07;23.00;50.40
81895;DHT22;71358;45.642;13.758;2024-01-07T08:02:51;23.00;50.40
81895;DHT22;71358;45.642;13.758;2024-01-07T08:05:36;23.00;50.50
81895;DHT22;71358;45.642;13.758;2024-01-07T08:08:21;23.00;50.50
81895;DHT22;71358;45.642;13.758;2024-01-07T08:11:05;22.90;50.40
81895;DHT22;71358;45.642;13.758;2024-01-07T08:13:52;22.90;50.40
81895;DHT22;71358;45.642;13.758;2024-01-07T08:16:37;22.90;50.40
81895;DHT22;71358;45.642;13.758;2024-01-07T08:19:21;22.90;50.40
81895;DHT22;71358;45.642;13.758;2024-01-07T08:22:06;22.90;50.40
81895;DHT22;71358;45.642;13.758;2024-01-07T08:24:50;22.90;50.40
81895;DHT22;71358;45.642;13.758;2024-01-07T08:27:35;22.90;50.30
81895;DHT22;71358;45.642;13.758;2024-01-07T08:30:21;22.90;50.30
81895;DHT22;71358;45.642;13.758;2024-01-07T08:33:06;22.90;50.30
81895;DHT22;71358;45.642;13.758;2024-01-07T08:35:50;22.90;50.20
81895;DHT22;71358;45.642;13.758;2024-01-07T08:38:35;22.90;50.20
81895;DHT22;71358;45.642;13.758;2024-01-07T08:41:19;22.90;50.30
81895;DHT22;71358;45.642;13.758;2024-01-07T08:44:04;22.90;50.30
81895;DHT22;71358;45.642;13.758;2024-01-07T08:46:49;22.90;50.30
81895;DHT22;71358;45.642;13.758;2024-01-07T08:49:33;22.90;50.30
81895;DHT22;71358;45.642;13.758;2024-01-07T08:52:18;22.90;50.20
81895;DHT22;71358;45.642;13.758;2024-01-07T08:55:03;22.90;50.20
81895;DHT22;71358;45.642;13.758;2024-01-07T08:57:49;22.90;50.20
81895;DHT22;71358;45.642;13.758;2024-01-07T09:00:34;22.90;50.20
81895;DHT22;71358;45.642;13.758;2024-01-07T09:03:18;22.90;50.20
81895;DHT22;71358;45.642;13.758;2024-01-07T09:06:03;22.90;50.10
81895;DHT22;71358;45.642;13.758;2024-01-07T09:08:48;22.90;50.00
81895;DHT22;71358;45.642;13.758;2024-01-07T09:11:32;22.90;50.10
81895;DHT22;71358;45.642;13.758;2024-01-07T09:14:18;22.90;50.10
81895;DHT22;71358;45.642;13.758;2024-01-07T09:17:03;22.90;50.00
81895;DHT22;71358;45.642;13.758;2024-01-07T09:19:47;22.80;49.90
81895;DHT22;71358;45.642;13.758;2024-01-07T09:22:32;22.80;50.00
81895;DHT22;71358;45.642;13.758;2024-01-07T09:25:16;22.80;50.00
81895;DHT22;71358;45.642;13.758;2024-01-07T09:28:01;22.80;49.90
81895;DHT22;71358;45.642;13.758;2024-01-07T09:30:46;22.80;50.50
81895;DHT22;71358;45.642;13.758;2024-01-07T09:33:30;22.80;49.70
81895;DHT22;71358;45.642;13.758;2024-01-07T09:36:15;22.80;49.60
81895;DHT22;71358;45.642;13.758;2024-01-07T09:39:00;22.80;49.60
81895;DHT22;71358;45.642;13.758;2024-01-07T09:41:44;22.80;49.70
81895;DHT22;71358;45.642;13.758;2024-01-07T09:44:29;22.80;49.70
81895;DHT22;71358;45.642;13.758;2024-01-07T09:47:14;22.80;49.70
81895;DHT22;71358;45.642;13.758;2024-01-07T09:49:59;22.80;49.70
81895;DHT22;71358;45.642;13.758;2024-01-07T09:52:44;22.80;49.60
81895;DHT22;71358;45.642;13.758;2024-01-07T09:55:37;22.80;49.60
81895;DHT22;71358;45.642;13.758;2024-01-07T09:58:25;22.80;49.50
81895;DHT22;71358;45.642;13.758;2024-01-07T10:01:10;22.80;49.50
81895;DHT22;71358;45.642;13.758;2024-01-07T10:03:54;22.80;49.60
81895;DHT22;71358;45.642;13.758;2024-01-07T10:06:39;22.80;49.70
81895;DHT22;71358;45.642;13.758;2024-01-07T10:09:28;22.80;49.80
81895;DHT22;71358;45.642;13.758;2024-01-07T10:12:14;22.80;49.70
81895;DHT22;71358;45.642;13.758;2024-01-07T10:14:58;22.80;49.70
81895;DHT22;71358;45.642;13.758;2024-01-07T10:17:43;22.80;49.70
81895;DHT22;71358;45.642;13.758;2024-01-07T10:20:27;22.80;49.90
81895;DHT22;71358;45.642;13.758;2024-01-07T10:23:12;22.80;50.00
81895;DHT22;71358;45.642;13.758;2024-01-07T10:25:58;22.80;50.00
81895;DHT22;71358;45.642;13.758;2024-01-07T10:28:43;22.70;50.00
81895;DHT22;71358;45.642;13.758;2024-01-07T10:31:27;22.70;49.70
81895;DHT22;71358;45.642;13.758;2024-01-07T10:34:13;22.70;49.60
81895;DHT22;71358;45.642;13.758;2024-01-07T10:37:01;22.70;49.60
81895;DHT22;71358;45.642;13.758;2024-01-07T10:39:46;22.70;49.60
81895;DHT22;71358;45.642;13.758;2024-01-07T10:42:33;22.70;49.60
81895;DHT22;71358;45.642;13.758;2024-01-07T10:45:17;22.70;49.50
81895;DHT22;71358;45.642;13.758;2024-01-07T10:48:04;22.70;49.30
81895;DHT22;71358;45.642;13.758;2024-01-07T10:50:55;22.70;48.90
81895;DHT22;71358;45.642;13.758;2024-01-07T10:53:43;22.70;49.00
81895;DHT22;71358;45.642;13.758;2024-01-07T10:56:37;22.70;49.10
81895;DHT22;71358;45.642;13.758;2024-01-07T10:59:24;22.70;48.80
81895;DHT22;71358;45.642;13.758;2024-01-07T11:02:10;22.60;48.50
81895;DHT22;71358;45.642;13.758;2024-01-07T11:05:11;22.60;48.30
81895;DHT22;71358;45.642;13.758;2024-01-07T11:08:28;22.60;47.80
81895;DHT22;71358;45.642;13.758;2024-01-07T11:14:00;22.60;48.10
81895;DHT22;71358;45.642;13.758;2024-01-07T11:16:46;22.60;48.00
81895;DHT22;71358;45.642;13.758;2024-01-07T11:19:31;22.60;47.80
81895;DHT22;71358;45.642;13.758;2024-01-07T11:22:24;22.60;47.70
81895;DHT22;71358;45.642;13.758;2024-01-07T11:25:29;22.60;48.30
81895;DHT22;71358;45.642;13.758;2024-01-07T11:28:16;22.60;47.50
81895;DHT22;71358;45.642;13.758;2024-01-07T11:31:02;22.60;47.50
81895;DHT22;71358;45.642;13.758;2024-01-07T11:33:50;22.60;47.60
81895;DHT22;71358;45.642;13.758;2024-01-07T11:36:36;22.60;47.70
81895;DHT22;71358;45.642;13.758;2024-01-07T11:39:20;22.60;47.70
81895;DHT22;71358;45.642;13.758;2024-01-07T11:42:05;22.60;47.50
81895;DHT22;71358;45.642;13.758;2024-01-07T11:44:54;22.60;47.50
81895;DHT22;71358;45.642;13.758;2024-01-07T11:47:38;22.50;47.70
81895;DHT22;71358;45.642;13.758;2024-01-07T11:50:23;22.50;48.30
81895;DHT22;71358;45.642;13.758;2024-01-07T11:53:07;22.60;49.00
81895;DHT22;71358;45.642;13.758;2024-01-07T11:55:52;22.60;49.30
81895;DHT22;71358;45.642;13.758;2024-01-07T11:58:37;22.60;49.50
81895;DHT22;71358;45.642;13.758;2024-01-07T12:01:22;22.60;49.60
81895;DHT22;71358;45.642;13.758;2024-01-07T12:04:06;22.60;49.80
81895;DHT22;71358;45.642;13.758;2024-01-07T12:06:52;22.60;49.90
81895;DHT22;71358;45.642;13.758;2024-01-07T12:09:39;22.60;49.90
81895;DHT22;71358;45.642;13.758;2024-01-07T12:12:34;22.60;49.90
81895;DHT22;71358;45.642;13.758;2024-01-07T12:15:20;22.60;50.00
81895;DHT22;71358;45.642;13.758;2024-01-07T12:18:06;22.60;50.00
81895;DHT22;71358;45.642;13.758;2024-01-07T12:20:58;22.60;49.90
81895;DHT22;71358;45.642;13.758;2024-01-07T12:23:48;22.70;49.80
81895;DHT22;71358;45.642;13.758;2024-01-07T12:26:36;22.70;50.40
81895;DHT22;71358;45.642;13.758;2024-01-07T12:29:24;22.70;49.70
81895;DHT22;71358;45.642;13.758;2024-01-07T12:32:12;22.70;49.80
81895;DHT22;71358;45.642;13.758;2024-01-07T12:35:09;22.70;49.80
81895;DHT22;71358;45.642;13.758;2024-01-07T12:37:53;22.80;49.90
81895;DHT22;71358;45.642;13.758;2024-01-07T12:40:40;22.80;49.90
81895;DHT22;71358;45.642;13.758;2024-01-07T12:43:25;22.80;50.00
81895;DHT22;71358;45.642;13.758;2024-01-07T12:46:09;22.80;50.00
81895;DHT22;71358;45.642;13.758;2024-01-07T12:48:54;22.80;50.10
81895;DHT22;71358;45.642;13.758;2024-01-07T12:51:39;22.80;49.90
81895;DHT22;71358;45.642;13.758;2024-01-07T12:54:23;22.80;49.80
81895;DHT22;71358;45.642;13.758;2024-01-07T12:57:08;22.70;49.70
81895;DHT22;71358;45.642;13.758;2024-01-07T12:59:53;22.70;49.70
81895;DHT22;71358;45.642;13.758;2024-01-07T13:02:38;22.70;49.70
81895;DHT22;71358;45.642;13.758;2024-01-07T13:05:23;22.70;49.70
81895;DHT22;71358;45.642;13.758;2024-01-07T13:08:08;22.70;49.80
81895;DHT22;71358;45.642;13.758;2024-01-07T13:10:54;22.70;49.80
81895;DHT22;71358;45.642;13.758;2024-01-07T13:13:38;22.70;49.80
81895;DHT22;71358;45.642;13.758;2024-01-07T13:16:23;22.70;49.80
81895;DHT22;71358;45.642;13.758;2024-01-07T13:19:09;22.70;49.60
81895;DHT22;71358;45.642;13.758;2024-01-07T13:21:54;22.70;49.70
81895;DHT22;71358;45.642;13.758;2024-01-07T13:24:45;22.60;49.70
81895;DHT22;71358;45.642;13.758;2024-01-07T13:27:30;22.60;49.60
81895;DHT22;71358;45.642;13.758;2024-01-07T13:30:14;22.60;49.60
81895;DHT22;71358;45.642;13.758;2024-01-07T13:33:00;22.60;49.60
81895;DHT22;71358;45.642;13.758;2024-01-07T13:35:45;22.60;49.60
81895;DHT22;71358;45.642;13.758;2024-01-07T13:38:32;22.60;49.60
81895;DHT22;71358;45.642;13.758;2024-01-07T13:41:27;22.60;49.60
81895;DHT22;71358;45.642;13.758;2024-01-07T13:44:18;22.50;49.50
81895;DHT22;71358;45.642;13.758;2024-01-07T13:47:05;22.50;49.50
81895;DHT22;71358;45.642;13.758;2024-01-07T13:49:52;22.50;49.40
81895;DHT22;71358;45.642;13.758;2024-01-07T13:52:47;22.50;49.40
81895;DHT22;71358;45.642;13.758;2024-01-07T13:55:34;22.50;49.40
81895;DHT22;71358;45.642;13.758;2024-01-07T13:58:24;22.50;49.40
81895;DHT22;71358;45.642;13.758;2024-01-07T14:01:08;22.50;49.30
81895;DHT22;71358;45.642;13.758;2024-01-07T14:03:53;22.50;49.30
81895;DHT22;71358;45.642;13.758;2024-01-07T14:06:37;22.50;49.40
81895;DHT22;71358;45.642;13.758;2024-01-07T14:09:22;22.50;49.20
81895;DHT22;71358;45.642;13.758;2024-01-07T14:12:07;22.50;49.10
81895;DHT22;71358;45.642;13.758;2024-01-07T14:14:52;22.50;49.20
81895;DHT22;71358;45.642;13.758;2024-01-07T14:17:36;22.50;49.20
81895;DHT22;71358;45.642;13.758;2024-01-07T14:20:21;22.50;49.10
81895;DHT22;71358;45.642;13.758;2024-01-07T14:23:06;22.40;48.90
81895;DHT22;71358;45.642;13.758;2024-01-07T14:25:50;22.40;48.90
81895;DHT22;71358;45.642;13.758;2024-01-07T14:28:35;22.40;48.80
81895;DHT22;71358;45.642;13.758;2024-01-07T14:31:20;22.40;48.90
81895;DHT22;71358;45.642;13.758;2024-01-07T14:34:04;22.40;48.70
81895;DHT22;71358;45.642;13.758;2024-01-07T14:36:49;22.40;48.80
81895;DHT22;71358;45.642;13.758;2024-01-07T14:39:33;22.40;48.80
81895;DHT22;71358;45.642;13.758;2024-01-07T14:42:18;22.40;48.90
81895;DHT22;71358;45.642;13.758;2024-01-07T14:45:03;22.40;48.80
81895;DHT22;71358;45.642;13.758;2024-01-07T14:47:48;22.40;48.80
81895;DHT22;71358;45.642;13.758;2024-01-07T14:50:33;22.40;48.80
81895;DHT22;71358;45.642;13.758;2024-01-07T14:53:18;22.40;48.80
81895;DHT22;71358;45.642;13.758;2024-01-07T14:56:03;22.40;48.80
81895;DHT22;71358;45.642;13.758;2024-01-07T14:58:48;22.40;48.70
81895;DHT22;71358;45.642;13.758;2024-01-07T15:01:33;22.40;48.80
81895;DHT22;71358;45.642;13.758;2024-01-07T15:04:18;22.40;48.90
81895;DHT22;71358;45.642;13.758;2024-01-07T15:07:02;22.40;49.10
81895;DHT22;71358;45.642;13.758;2024-01-07T15:09:47;22.40;49.20
81895;DHT22;71358;45.642;13.758;2024-01-07T15:12:31;22.40;49.30
81895;DHT22;71358;45.642;13.758;2024-01-07T15:15:19;22.50;49.60
81895;DHT22;71358;45.642;13.758;2024-01-07T15:18:06;22.50;49.80
81895;DHT22;71358;45.642;13.758;2024-01-07T15:20:50;22.50;50.10
81895;DHT22;71358;45.642;13.758;2024-01-07T15:23:36;22.60;50.30
81895;DHT22;71358;45.642;13.758;2024-01-07T15:26:20;22.60;50.40
81895;DHT22;71358;45.642;13.758;2024-01-07T15:29:05;22.60;50.60
81895;DHT22;71358;45.642;13.758;2024-01-07T15:31:49;22.70;50.70
81895;DHT22;71358;45.642;13.758;2024-01-07T15:34:34;22.70;50.80
81895;DHT22;71358;45.642;13.758;2024-01-07T15:37:19;22.70;50.90
81895;DHT22;71358;45.642;13.758;2024-01-07T15:40:04;22.70;51.00
81895;DHT22;71358;45.642;13.758;2024-01-07T15:42:48;22.70;51.10
81895;DHT22;71358;45.642;13.758;2024-01-07T15:45:33;22.70;51.10
81895;DHT22;71358;45.642;13.758;2024-01-07T15:48:19;22.80;51.20
81895;DHT22;71358;45.642;13.758;2024-01-07T15:51:03;22.80;51.20
81895;DHT22;71358;45.642;13.758;2024-01-07T15:53:48;22.80;51.10
81895;DHT22;71358;45.642;13.758;2024-01-07T15:56:35;22.80;51.10
81895;DHT22;71358;45.642;13.758;2024-01-07T15:59:26;22.80;51.10
81895;DHT22;71358;45.642;13.758;2024-01-07T16:02:17;22.80;51.10
81895;DHT22;71358;45.642;13.758;2024-01-07T16:05:01;22.80;51.10
81895;DHT22;71358;45.642;13.758;2024-01-07T16:07:51;22.80;51.10
81895;DHT22;71358;45.642;13.758;2024-01-07T16:10:41;22.90;51.10
81895;DHT22;71358;45.642;13.758;2024-01-07T16:13:33;22.90;51.10
81895;DHT22;71358;45.642;13.758;2024-01-07T16:16:24;22.90;51.00
81895;DHT22;71358;45.642;13.758;2024-01-07T16:19:10;22.90;51.00
81895;DHT22;71358;45.642;13.758;2024-01-07T16:21:57;22.90;51.00
81895;DHT22;71358;45.642;13.758;2024-01-07T16:24:53;22.90;50.90
81895;DHT22;71358;45.642;13.758;2024-01-07T16:27:40;22.90;50.90
81895;DHT22;71358;45.642;13.758;2024-01-07T16:30:24;22.90;50.80
81895;DHT22;71358;45.642;13.758;2024-01-07T16:33:12;22.90;50.70
81895;DHT22;71358;45.642;13.758;2024-01-07T16:36:01;22.90;50.00
81895;DHT22;71358;45.642;13.758;2024-01-07T16:38:49;23.00;50.30
81895;DHT22;71358;45.642;13.758;2024-01-07T16:41:33;23.00;50.40
81895;DHT22;71358;45.642;13.758;2024-01-07T16:44:19;23.00;50.40
81895;DHT22;71358;45.642;13.758;2024-01-07T16:47:06;23.00;50.40
81895;DHT22;71358;45.642;13.758;2024-01-07T16:49:54;23.00;50.40
81895;DHT22;71358;45.642;13.758;2024-01-07T16:52:38;23.00;50.30
81895;DHT22;71358;45.642;13.758;2024-01-07T16:55:23;23.00;50.20
81895;DHT22;71358;45.642;13.758;2024-01-07T16:58:07;23.00;50.10
81895;DHT22;71358;45.642;13.758;2024-01-07T17:00:52;23.00;50.00
81895;DHT22;71358;45.642;13.758;2024-01-07T17:03:41;23.00;50.00
81895;DHT22;71358;45.642;13.758;2024-01-07T17:06:26;23.00;50.00
81895;DHT22;71358;45.642;13.758;2024-01-07T17:09:10;23.00;50.00
81895;DHT22;71358;45.642;13.758;2024-01-07T17:11:55;23.00;50.00